createdAt,value
2018-03-23T00:00:26.979Z,7.50
2018-03-23T00:02:54.433Z,8.17
2018-03-23T00:05:21.888Z,8.07
2018-03-23T00:07:49.359Z,8.07
2018-03-23T00:10:16.821Z,7.97
2018-03-23T00:12:45.033Z,8.07
2018-03-23T00:15:12.525Z,7.87
2018-03-23T00:17:39.991Z,8.07
2018-03-23T00:20:07.449Z,7.90
2018-03-23T00:22:34.890Z,7.33
2018-03-23T00:25:02.377Z,7.00
2018-03-23T00:27:29.825Z,7.63
2018-03-23T00:29:57.280Z,7.50
2018-03-23T00:32:24.754Z,7.63
2018-03-23T00:34:52.261Z,6.70
2018-03-23T00:37:20.493Z,6.93
2018-03-23T00:42:22.485Z,7.70
2018-03-23T00:44:49.925Z,7.07
2018-03-23T00:47:17.387Z,7.67
2018-03-23T00:49:44.841Z,7.60
2018-03-23T00:52:12.302Z,7.13
2018-03-23T00:54:40.517Z,7.33
2018-03-23T00:57:08.729Z,7.30
2018-03-23T00:59:36.942Z,7.63
2018-03-23T01:02:04.438Z,8.73
2018-03-23T01:04:32.656Z,7.90
2018-03-23T01:07:00.125Z,8.40
2018-03-23T01:09:27.582Z,9.43
2018-03-23T01:11:55.056Z,8.50
2018-03-23T01:14:24.059Z,9.40
2018-03-23T01:16:52.280Z,8.47
2018-03-23T01:19:19.736Z,8.20
2018-03-23T01:21:47.216Z,9.83
2018-03-23T01:24:14.661Z,9.40
2018-03-23T01:26:42.137Z,9.67
2018-03-23T01:29:10.350Z,9.90
2018-03-23T01:31:37.806Z,9.80
2018-03-23T01:34:05.270Z,8.93
2018-03-23T01:36:32.715Z,9.27
2018-03-23T01:39:00.207Z,9.10
2018-03-23T01:41:27.650Z,7.93
2018-03-23T01:43:55.113Z,8.70
2018-03-23T01:46:22.553Z,8.97
2018-03-23T01:48:50.790Z,8.87
2018-03-23T01:51:18.243Z,8.37
2018-03-23T01:53:45.705Z,8.70
2018-03-23T01:56:13.165Z,8.70
2018-03-23T01:58:41.373Z,8.77
2018-03-23T02:01:10.217Z,8.70
2018-03-23T02:03:37.821Z,9.90
2018-03-23T02:06:05.282Z,9.60
2018-03-23T02:08:32.738Z,10.73
2018-03-23T02:11:00.201Z,9.80
2018-03-23T02:13:27.709Z,9.97
2018-03-23T02:15:55.159Z,9.30
2018-03-23T02:18:22.630Z,9.90
2018-03-23T02:20:50.842Z,8.90
2018-03-23T02:23:18.303Z,9.53
2018-03-23T02:25:45.745Z,8.50
2018-03-23T02:28:13.218Z,8.63
2018-03-23T02:30:41.436Z,8.27
2018-03-23T02:33:08.894Z,8.70
2018-03-23T02:35:36.354Z,8.80
2018-03-23T02:38:03.810Z,8.80
2018-03-23T02:40:31.265Z,8.60
2018-03-23T02:42:58.726Z,9.27
2018-03-23T02:45:26.185Z,8.90
2018-03-23T02:47:53.643Z,8.40
2018-03-23T02:50:21.101Z,8.33
2018-03-23T02:52:48.570Z,9.10
2018-03-23T02:55:16.787Z,7.07
2018-03-23T02:57:44.233Z,8.23
2018-03-23T03:00:11.694Z,7.70
2018-03-23T03:02:39.151Z,7.37
2018-03-23T03:05:06.619Z,7.13
2018-03-23T03:07:34.067Z,7.93
2018-03-23T03:10:01.522Z,7.50
2018-03-23T03:12:28.981Z,8.00
2018-03-23T03:14:56.442Z,7.50
2018-03-23T03:17:23.950Z,7.70
2018-03-23T03:19:51.401Z,7.30
2018-03-23T03:22:18.858Z,7.60
2018-03-23T03:24:46.323Z,7.13
2018-03-23T03:27:14.530Z,7.20
2018-03-23T03:29:42.765Z,7.80
2018-03-23T03:32:10.234Z,8.57
2018-03-23T03:34:37.701Z,7.03
2018-03-23T03:37:05.161Z,7.87
2018-03-23T03:39:32.618Z,7.93
2018-03-23T03:42:00.074Z,7.10
2018-03-23T03:44:27.540Z,7.70
2018-03-23T03:46:54.998Z,7.07
2018-03-23T03:49:22.462Z,7.30
2018-03-23T03:51:50.699Z,8.13
2018-03-23T03:54:18.156Z,8.00
2018-03-23T03:56:45.619Z,7.70
2018-03-23T03:59:13.099Z,7.93
2018-03-23T04:01:40.578Z,8.63
2018-03-23T04:04:08.806Z,8.27
2018-03-23T04:06:36.294Z,8.10
2018-03-23T04:09:03.780Z,8.70
2018-03-23T04:11:32.014Z,9.00
2018-03-23T04:14:00.239Z,9.40
2018-03-23T04:16:27.695Z,9.70
2018-03-23T04:18:55.142Z,10.33
2018-03-23T04:21:23.382Z,10.40
2018-03-23T04:23:50.906Z,9.70
2018-03-23T04:26:18.378Z,11.10
2018-03-23T04:28:45.838Z,10.43
2018-03-23T04:31:13.297Z,11.17
2018-03-23T04:33:40.790Z,11.47
2018-03-23T04:36:09.029Z,11.37
2018-03-23T04:38:36.489Z,12.07
2018-03-23T04:41:03.961Z,11.53
2018-03-23T04:43:31.422Z,11.70
2018-03-23T04:45:58.886Z,12.57
2018-03-23T04:48:26.354Z,12.10
2018-03-23T04:50:53.831Z,11.67
2018-03-23T04:53:22.046Z,13.47
2018-03-23T04:55:49.501Z,12.63
2018-03-23T04:58:16.983Z,13.83
2018-03-23T05:00:45.189Z,12.20
2018-03-23T05:03:12.680Z,11.30
2018-03-23T05:05:40.121Z,12.90
2018-03-23T05:08:07.578Z,12.90
2018-03-23T05:10:35.033Z,12.37
2018-03-23T05:13:02.525Z,13.60
2018-03-23T05:15:29.981Z,12.37
2018-03-23T05:17:57.441Z,13.50
2018-03-23T05:20:24.897Z,14.03
2018-03-23T05:22:52.377Z,14.23
2018-03-23T05:25:19.862Z,14.20
2018-03-23T05:27:48.107Z,13.37
2018-03-23T05:30:15.585Z,13.77
2018-03-23T05:32:43.829Z,13.73
2018-03-23T05:35:11.317Z,15.57
2018-03-23T05:37:40.302Z,13.50
2018-03-23T05:40:07.773Z,14.17
2018-03-23T05:42:35.297Z,14.57
2018-03-23T05:45:02.759Z,14.40
2018-03-23T05:47:30.238Z,14.10
2018-03-23T05:49:57.694Z,12.57
2018-03-23T05:52:25.937Z,14.40
2018-03-23T05:54:53.406Z,15.37
2018-03-23T05:57:20.898Z,13.20
2018-03-23T05:59:49.197Z,13.63
2018-03-23T06:02:16.637Z,13.40
2018-03-23T06:04:44.874Z,12.40
2018-03-23T06:07:12.347Z,11.57
2018-03-23T06:09:39.826Z,11.47
2018-03-23T06:12:08.052Z,12.50
2018-03-23T06:14:35.538Z,12.47
2018-03-23T06:17:03.025Z,12.10
2018-03-23T06:19:31.270Z,11.20
2018-03-23T06:21:58.729Z,11.87
2018-03-23T06:24:26.218Z,11.60
2018-03-23T06:26:54.462Z,12.90
2018-03-23T06:29:21.964Z,11.90
2018-03-23T06:31:49.484Z,12.63
2018-03-23T06:34:16.953Z,11.23
2018-03-23T06:36:45.200Z,13.13
2018-03-23T06:39:12.665Z,12.20
2018-03-23T06:41:40.123Z,11.87
2018-03-23T06:44:08.346Z,11.80
2018-03-23T06:46:35.802Z,11.27
2018-03-23T06:49:03.257Z,13.40
2018-03-23T06:51:30.723Z,12.30
2018-03-23T06:53:58.177Z,13.03
2018-03-23T06:56:25.629Z,13.13
2018-03-23T06:58:53.149Z,11.30
2018-03-23T07:01:20.598Z,12.30
2018-03-23T07:03:48.078Z,12.60
2018-03-23T07:06:15.538Z,12.47
2018-03-23T07:08:42.994Z,12.70
2018-03-23T07:11:10.453Z,12.27
2018-03-23T07:13:37.941Z,11.13
2018-03-23T07:16:05.570Z,12.00
2018-03-23T07:18:33.811Z,12.37
2018-03-23T07:21:01.280Z,12.07
2018-03-23T07:23:29.497Z,13.00
2018-03-23T07:25:56.950Z,12.23
2018-03-23T07:28:24.410Z,11.87
2018-03-23T07:30:52.361Z,12.90
2018-03-23T07:33:20.102Z,12.40
2018-03-23T07:35:47.585Z,11.80
2018-03-23T07:38:15.846Z,13.00
2018-03-23T07:40:43.314Z,13.37
2018-03-23T07:43:10.776Z,13.67
2018-03-23T07:45:38.233Z,12.83
2018-03-23T07:48:05.698Z,14.07
2018-03-23T07:50:33.942Z,13.90
2018-03-23T07:53:01.406Z,13.00
2018-03-23T07:55:28.883Z,12.70
2018-03-23T07:57:56.352Z,12.40
2018-03-23T08:00:24.582Z,14.63
2018-03-23T08:02:52.086Z,13.40
2018-03-23T08:05:20.321Z,12.53
2018-03-23T08:07:48.550Z,12.67
2018-03-23T08:10:16.010Z,14.13
2018-03-23T08:12:43.505Z,13.60
2018-03-23T08:15:10.978Z,13.10
2018-03-23T08:17:38.455Z,13.77
2018-03-23T08:20:06.686Z,13.40
2018-03-23T08:22:34.162Z,13.37
2018-03-23T08:25:02.382Z,13.90
2018-03-23T08:27:31.710Z,14.23
2018-03-23T08:29:59.181Z,13.63
2018-03-23T08:32:26.649Z,13.37
2018-03-23T08:34:54.126Z,14.50
2018-03-23T08:37:21.591Z,13.43
2018-03-23T08:39:50.562Z,14.90
2018-03-23T08:42:18.041Z,14.70
2018-03-23T08:44:45.517Z,14.37
2018-03-23T08:47:12.968Z,13.03
2018-03-23T08:49:41.198Z,15.07
2018-03-23T08:52:08.657Z,15.53
2018-03-23T08:54:36.118Z,14.03
2018-03-23T08:57:03.589Z,14.67
2018-03-23T08:59:31.065Z,15.10
2018-03-23T09:01:59.333Z,13.57
2018-03-23T09:04:26.770Z,15.77
2018-03-23T09:06:54.250Z,14.50
2018-03-23T09:09:21.722Z,13.30
2018-03-23T09:11:49.175Z,15.10
2018-03-23T09:14:17.410Z,14.73
2018-03-23T09:16:44.895Z,13.90
2018-03-23T09:19:13.113Z,14.67
2018-03-23T09:21:41.354Z,14.97
2018-03-23T09:24:08.813Z,15.30
2018-03-23T09:26:36.273Z,15.33
2018-03-23T09:29:03.726Z,15.70
2018-03-23T09:31:31.177Z,15.40
2018-03-23T09:33:58.687Z,16.13
2018-03-23T09:36:26.917Z,17.17
2018-03-23T09:38:54.378Z,16.37
2018-03-23T09:41:21.842Z,17.83
2018-03-23T09:43:50.073Z,17.77
2018-03-23T09:46:18.289Z,19.10
2018-03-23T09:48:46.536Z,18.80
2018-03-23T09:51:13.996Z,18.50
2018-03-23T09:53:41.463Z,17.37
2018-03-23T09:56:08.923Z,17.87
2018-03-23T09:58:36.456Z,19.00
2018-03-23T10:01:03.911Z,19.03
2018-03-23T10:03:31.495Z,19.03
2018-03-23T10:05:58.886Z,19.70
2018-03-23T10:08:26.356Z,19.30
2018-03-23T10:10:53.834Z,20.30
2018-03-23T10:13:21.324Z,19.63
2018-03-23T10:15:48.753Z,19.57
2018-03-23T10:18:16.214Z,20.30
2018-03-23T10:20:43.750Z,20.00
2018-03-23T10:23:11.154Z,18.63
2018-03-23T10:25:38.613Z,20.60
2018-03-23T10:28:06.838Z,21.17
2018-03-23T10:30:34.309Z,21.40
2018-03-23T10:33:01.784Z,21.97
2018-03-23T10:35:29.303Z,19.97
2018-03-23T10:37:56.714Z,21.30
2018-03-23T10:40:24.182Z,22.33
2018-03-23T10:42:52.462Z,21.27
2018-03-23T10:45:20.706Z,21.30
2018-03-23T10:47:48.174Z,20.37
2018-03-23T10:50:15.641Z,22.60
2018-03-23T10:52:43.126Z,22.53
2018-03-23T10:55:11.343Z,23.87
2018-03-23T10:57:38.794Z,23.53
2018-03-23T11:00:06.266Z,23.23
2018-03-23T11:02:43.630Z,21.53
2018-03-23T11:05:11.113Z,22.57
2018-03-23T11:07:38.571Z,23.30
2018-03-23T11:10:06.051Z,23.03
2018-03-23T11:12:33.618Z,23.83
2018-03-23T11:15:01.090Z,22.07
2018-03-23T11:17:28.541Z,23.17
2018-03-23T11:19:56.000Z,22.90
2018-03-23T11:22:23.454Z,23.73
2018-03-23T11:24:50.901Z,24.83
2018-03-23T11:27:18.358Z,26.40
2018-03-23T11:29:46.577Z,25.00
2018-03-23T11:32:14.058Z,24.47
2018-03-23T11:34:41.510Z,25.93
2018-03-23T11:37:08.975Z,25.10
2018-03-23T11:39:36.457Z,24.50
2018-03-23T11:42:03.926Z,24.40
2018-03-23T11:44:31.393Z,24.13
2018-03-23T11:46:58.845Z,24.63
2018-03-23T11:49:26.303Z,24.90
2018-03-23T11:51:53.765Z,25.13
2018-03-23T11:54:21.213Z,25.83
2018-03-23T11:56:48.673Z,25.17
2018-03-23T11:59:16.143Z,27.37
2018-03-23T12:01:44.393Z,27.87
2018-03-23T12:04:11.858Z,26.83
2018-03-23T12:06:39.378Z,27.07
2018-03-23T12:09:07.598Z,28.67
2018-03-23T12:11:35.108Z,29.20
2018-03-23T12:14:02.573Z,31.00
2018-03-23T12:16:30.798Z,29.27
2018-03-23T12:18:59.050Z,28.90
2018-03-23T12:21:26.518Z,29.73
2018-03-23T12:23:53.985Z,31.40
2018-03-23T12:26:22.213Z,30.10
2018-03-23T12:28:49.714Z,28.30
2018-03-23T12:31:17.172Z,30.93
2018-03-23T12:33:44.656Z,30.47
2018-03-23T12:36:12.882Z,31.97
2018-03-23T12:38:40.522Z,30.90
2018-03-23T12:41:08.773Z,32.80
2018-03-23T12:43:36.257Z,33.60
2018-03-23T12:46:03.710Z,31.67
2018-03-23T12:48:31.194Z,32.63
2018-03-23T12:50:58.676Z,35.07
2018-03-23T12:53:26.122Z,31.77
2018-03-23T12:55:53.573Z,32.27
2018-03-23T12:58:21.041Z,32.30
2018-03-23T13:00:48.498Z,31.67
2018-03-23T13:03:17.485Z,32.20
2018-03-23T13:05:44.954Z,31.63
2018-03-23T13:08:12.408Z,31.50
2018-03-23T13:10:39.866Z,31.87
2018-03-23T13:13:07.333Z,32.90
2018-03-23T13:15:35.577Z,35.13
2018-03-23T13:18:03.814Z,34.97
2018-03-23T13:20:31.295Z,34.57
2018-03-23T13:22:58.774Z,40.50
2018-03-23T13:25:26.276Z,34.80
2018-03-23T13:27:53.758Z,31.50
2018-03-23T13:30:21.340Z,30.80
2018-03-23T13:32:48.807Z,29.90
2018-03-23T13:35:16.261Z,28.93
2018-03-23T13:37:44.490Z,28.27
2018-03-23T13:40:11.973Z,27.97
2018-03-23T13:42:39.449Z,26.20
2018-03-23T13:45:06.897Z,27.30
2018-03-23T13:47:34.365Z,28.43
2018-03-23T13:50:01.869Z,27.33
2018-03-23T13:52:29.278Z,27.33
2018-03-23T13:54:56.752Z,25.70
2018-03-23T13:57:24.214Z,26.23
2018-03-23T13:59:57.382Z,27.37
2018-03-23T14:02:25.628Z,28.23
2018-03-23T14:04:53.084Z,27.90
2018-03-23T14:07:20.552Z,27.97
2018-03-23T14:09:48.046Z,28.40
2018-03-23T14:12:15.501Z,28.70
2018-03-23T14:14:42.972Z,28.47
2018-03-23T14:17:11.201Z,27.17
2018-03-23T14:19:38.708Z,28.20
2018-03-23T14:22:06.170Z,26.70
2018-03-23T14:24:34.420Z,27.30
2018-03-23T14:27:01.883Z,27.03
2018-03-23T14:29:29.364Z,28.27
2018-03-23T14:31:56.822Z,28.20
2018-03-23T14:34:24.269Z,28.47
2018-03-23T14:36:51.730Z,27.27
2018-03-23T14:39:19.189Z,28.00
2018-03-23T14:41:46.647Z,28.43
2018-03-23T14:44:14.098Z,28.93
2018-03-23T14:46:41.625Z,27.77
2018-03-23T14:49:09.806Z,27.60
2018-03-23T14:51:37.266Z,26.57
2018-03-23T14:54:04.718Z,29.33
2018-03-23T14:56:32.903Z,28.90
2018-03-23T14:59:05.994Z,27.07
2018-03-23T15:01:33.417Z,28.73
2018-03-23T15:04:00.886Z,26.80
2018-03-23T15:06:28.353Z,28.87
2018-03-23T15:08:55.818Z,29.87
2018-03-23T15:11:23.288Z,30.80
2018-03-23T15:13:50.735Z,29.97
2018-03-23T15:16:18.199Z,26.83
2018-03-23T15:18:45.663Z,27.63
2018-03-23T15:21:13.147Z,28.07
2018-03-23T15:23:41.374Z,27.60
2018-03-23T15:26:08.833Z,28.50
2018-03-23T15:28:37.069Z,27.67
2018-03-23T15:31:04.518Z,26.60
2018-03-23T15:33:31.989Z,26.50
2018-03-23T15:35:59.466Z,25.23
2018-03-23T15:38:26.938Z,27.00
2018-03-23T15:40:54.400Z,24.90
2018-03-23T15:43:21.850Z,26.80
2018-03-23T15:45:50.077Z,26.73
2018-03-23T15:48:18.314Z,26.10
2018-03-23T15:50:46.558Z,25.30
2018-03-23T15:53:14.027Z,26.67
2018-03-23T15:55:41.489Z,27.47
2018-03-23T15:58:08.959Z,26.90
2018-03-23T16:00:36.410Z,26.53
2018-03-23T16:03:03.877Z,25.93
2018-03-23T16:05:31.349Z,25.50
2018-03-23T16:07:58.805Z,23.50
2018-03-23T16:10:26.258Z,23.07
2018-03-23T16:12:53.722Z,22.27
2018-03-23T16:15:21.177Z,21.63
2018-03-23T16:17:48.630Z,19.90
2018-03-23T16:20:16.086Z,21.33
2018-03-23T16:22:43.574Z,20.37
2018-03-23T16:25:11.799Z,18.83
2018-03-23T16:27:40.026Z,18.30
2018-03-23T16:30:07.498Z,17.93
2018-03-23T16:32:34.954Z,18.73
2018-03-23T16:35:02.438Z,17.13
2018-03-23T16:37:29.889Z,17.57
2018-03-23T16:39:57.357Z,17.13
2018-03-23T16:42:24.813Z,16.27
2018-03-23T16:44:52.274Z,16.83
2018-03-23T16:47:20.506Z,16.90
2018-03-23T16:49:47.995Z,16.20
2018-03-23T16:52:15.454Z,16.73
2018-03-23T16:54:42.923Z,16.70
2018-03-23T16:57:10.383Z,17.20
2018-03-23T16:59:37.838Z,16.30
2018-03-23T17:02:05.293Z,17.40
2018-03-23T17:04:32.749Z,17.20
2018-03-23T17:07:00.205Z,15.30
2018-03-23T17:09:27.661Z,17.60
2018-03-23T17:11:55.125Z,17.03
2018-03-23T17:14:22.592Z,17.93
2018-03-23T17:16:50.049Z,17.23
2018-03-23T17:19:17.506Z,16.60
2018-03-23T17:21:45.734Z,17.77
2018-03-23T17:24:13.194Z,17.20
2018-03-23T17:26:40.660Z,18.17
2018-03-23T17:29:08.124Z,18.57
2018-03-23T17:31:35.597Z,17.63
2018-03-23T17:34:03.054Z,17.37
2018-03-23T17:36:30.518Z,16.70
2018-03-23T17:38:57.982Z,18.27
2018-03-23T17:41:25.442Z,17.70
2018-03-23T17:43:52.898Z,18.80
2018-03-23T17:46:20.390Z,18.00
2018-03-23T17:48:47.858Z,17.80
2018-03-23T17:51:16.086Z,18.70
2018-03-23T17:53:44.354Z,17.43
2018-03-23T17:56:11.825Z,17.70
2018-03-23T17:58:39.283Z,17.90
2018-03-23T18:01:06.773Z,17.50
2018-03-23T18:03:36.915Z,18.87
2018-03-23T18:06:04.384Z,19.20
2018-03-23T18:08:31.858Z,18.17
2018-03-23T18:13:32.201Z,19.80
2018-03-23T18:15:59.673Z,20.37
2018-03-23T18:18:27.902Z,19.63
2018-03-23T18:20:55.402Z,20.17
2018-03-23T18:23:23.745Z,21.70
2018-03-23T18:25:51.206Z,23.07
2018-03-23T18:28:18.674Z,20.80
2018-03-23T18:30:46.141Z,20.20
2018-03-23T18:33:13.602Z,22.27
2018-03-23T18:35:41.077Z,22.27
2018-03-23T18:38:09.297Z,21.90
2018-03-23T18:40:36.757Z,22.60
2018-03-23T18:43:04.224Z,22.27
2018-03-23T18:45:31.670Z,22.77
2018-03-23T18:47:59.127Z,21.87
2018-03-23T18:50:26.582Z,24.30
2018-03-23T18:52:54.050Z,22.47
2018-03-23T18:55:21.498Z,22.90
2018-03-23T18:57:48.965Z,25.53
2018-03-23T19:00:16.422Z,23.63
2018-03-23T19:02:43.905Z,23.37
2018-03-23T19:05:11.362Z,25.30
2018-03-23T19:07:38.817Z,25.10
2018-03-23T19:10:06.273Z,26.13
2018-03-23T19:12:33.738Z,25.00
2018-03-23T19:15:01.267Z,26.67
2018-03-23T19:17:28.748Z,25.83
2018-03-23T19:19:56.210Z,27.20
2018-03-23T19:22:23.670Z,27.47
2018-03-23T19:24:51.134Z,27.20
2018-03-23T19:27:18.596Z,27.60
2018-03-23T19:29:46.058Z,27.97
2018-03-23T19:32:14.277Z,28.80
2018-03-23T19:34:42.506Z,26.30
2018-03-23T19:37:10.725Z,28.33
2018-03-23T19:39:38.199Z,29.90
2018-03-23T19:42:05.679Z,29.30
2018-03-23T19:44:33.150Z,29.03
2018-03-23T19:47:00.602Z,31.10
2018-03-23T19:49:28.842Z,30.10
2018-03-23T19:51:56.323Z,30.40
2018-03-23T19:54:23.785Z,32.10
2018-03-23T19:56:51.243Z,32.57
2018-03-23T19:59:18.702Z,32.53
2018-03-23T20:01:46.265Z,32.23
2018-03-23T20:04:14.742Z,31.53
2018-03-23T20:06:42.222Z,34.07
2018-03-23T20:09:10.338Z,33.83
2018-03-23T20:11:38.562Z,32.80
2018-03-23T20:14:10.873Z,36.70
2018-03-23T20:16:39.097Z,35.17
2018-03-23T20:19:06.722Z,35.47
2018-03-23T20:21:34.182Z,35.17
2018-03-23T20:24:08.034Z,34.33
2018-03-23T20:26:35.495Z,33.97
2018-03-23T20:29:02.949Z,34.13
2018-03-23T20:31:36.093Z,34.63
2018-03-23T20:34:03.633Z,33.67
2018-03-23T20:36:31.091Z,35.50
2018-03-23T20:38:58.558Z,35.77
2018-03-23T20:41:26.770Z,35.40
2018-03-23T20:43:54.233Z,34.07
2018-03-23T20:46:21.686Z,33.33
2018-03-23T20:48:49.166Z,34.63
2018-03-23T20:51:16.674Z,34.00
2018-03-23T20:53:44.134Z,33.73
2018-03-23T20:56:11.606Z,34.80
2018-03-23T20:58:39.069Z,35.60
2018-03-23T21:01:06.548Z,32.80
2018-03-23T21:03:33.990Z,34.30
2018-03-23T21:06:02.244Z,35.07
2018-03-23T21:08:30.630Z,33.07
2018-03-23T21:10:58.098Z,35.10
2018-03-23T21:13:25.547Z,34.93
2018-03-23T21:15:53.015Z,34.60
2018-03-23T21:18:20.487Z,35.83
2018-03-23T21:20:47.955Z,36.37
2018-03-23T21:23:15.409Z,34.30
2018-03-23T21:25:42.872Z,35.47
2018-03-23T21:28:11.100Z,37.57
2018-03-23T21:30:39.322Z,36.87
2018-03-23T21:33:06.788Z,35.37
2018-03-23T21:35:34.260Z,34.93
2018-03-23T21:38:03.222Z,34.20
2018-03-23T21:40:30.687Z,36.33
2018-03-23T21:42:59.833Z,37.33
2018-03-23T21:45:27.314Z,35.20
2018-03-23T21:47:58.654Z,35.63
2018-03-23T21:50:26.123Z,35.90
2018-03-23T21:52:53.573Z,36.50
2018-03-23T21:55:21.037Z,35.60
2018-03-23T21:57:48.500Z,36.57
2018-03-23T22:00:15.973Z,38.43
2018-03-23T22:02:43.433Z,37.07
2018-03-23T22:05:10.890Z,38.40
2018-03-23T22:07:38.363Z,39.50
2018-03-23T22:10:05.806Z,36.57
2018-03-23T22:12:33.287Z,38.63
2018-03-23T22:15:00.746Z,36.90
2018-03-23T22:17:29.717Z,40.77
2018-03-23T22:19:57.951Z,37.20
2018-03-23T22:22:25.418Z,38.00
2018-03-23T22:24:52.879Z,37.87
2018-03-23T22:27:20.345Z,39.10
2018-03-23T22:29:47.798Z,40.30
2018-03-23T22:32:15.272Z,39.50
2018-03-23T22:34:42.729Z,38.97
2018-03-23T22:37:10.190Z,39.73
2018-03-23T22:39:37.666Z,39.90
2018-03-23T22:42:05.906Z,39.10
2018-03-23T22:44:33.365Z,38.57
2018-03-23T22:47:00.844Z,39.87
2018-03-23T22:49:28.316Z,38.83
2018-03-23T22:51:55.778Z,37.07
2018-03-23T22:54:23.230Z,39.37
2018-03-23T22:56:52.203Z,38.67
2018-03-23T22:59:19.654Z,39.10
2018-03-23T23:01:47.142Z,39.23
2018-03-23T23:04:14.598Z,38.43
2018-03-23T23:06:42.067Z,38.70
2018-03-23T23:09:09.532Z,39.10
2018-03-23T23:11:37.014Z,39.30
2018-03-23T23:14:04.477Z,38.00
2018-03-23T23:16:32.145Z,39.40
2018-03-23T23:18:59.626Z,40.33
2018-03-23T23:21:27.078Z,40.03
2018-03-23T23:23:54.551Z,40.30
2018-03-23T23:26:22.008Z,39.47
2018-03-23T23:28:49.469Z,38.40
2018-03-23T23:31:17.686Z,39.97
2018-03-23T23:33:45.154Z,40.70
2018-03-23T23:36:12.642Z,41.57
2018-03-23T23:38:40.110Z,37.90
2018-03-23T23:41:07.570Z,38.40
2018-03-23T23:43:35.074Z,42.47
2018-03-23T23:46:03.293Z,42.23
2018-03-23T23:48:30.765Z,39.37
2018-03-23T23:50:58.209Z,40.73
2018-03-23T23:53:25.676Z,41.77
2018-03-23T23:55:53.137Z,42.43
2018-03-23T23:58:20.598Z,40.50
